createdAt,value
2018-11-13T00:00:14.119Z,11.87
2018-11-13T00:02:42.476Z,11.87
2018-11-13T00:05:10.759Z,12.20
2018-11-13T00:07:38.845Z,11.03
2018-11-13T00:10:07.615Z,15.23
2018-11-13T00:12:35.644Z,11.37
2018-11-13T00:15:03.783Z,15.53
2018-11-13T00:17:32.762Z,12.57
2018-11-13T00:20:00.849Z,13.07
2018-11-13T00:22:29.105Z,11.10
2018-11-13T00:24:57.210Z,13.90
2018-11-13T00:27:25.276Z,12.80
2018-11-13T00:29:53.772Z,12.23
2018-11-13T00:32:21.971Z,13.27
2018-11-13T00:34:50.203Z,12.10
2018-11-13T00:37:18.234Z,12.33
2018-11-13T00:39:46.300Z,13.03
2018-11-13T00:42:14.434Z,11.67
2018-11-13T00:44:42.506Z,12.20
2018-11-13T00:47:10.561Z,12.13
2018-11-13T00:49:38.646Z,11.83
2018-11-13T00:52:07.480Z,12.90
2018-11-13T00:54:35.548Z,13.43
2018-11-13T00:57:03.591Z,11.90
2018-11-13T00:59:31.974Z,11.67
2018-11-13T01:01:59.752Z,12.43
2018-11-13T01:04:27.997Z,13.27
2018-11-13T01:06:56.190Z,11.27
2018-11-13T01:09:24.321Z,12.20
2018-11-13T01:11:52.426Z,12.83
2018-11-13T01:14:20.490Z,14.60
2018-11-13T01:16:48.552Z,13.73
2018-11-13T01:19:16.662Z,13.57
2018-11-13T01:21:44.845Z,13.83
2018-11-13T01:24:12.903Z,11.70
2018-11-13T01:26:40.949Z,11.93
2018-11-13T01:29:09.041Z,11.93
2018-11-13T01:31:37.120Z,14.53
2018-11-13T01:34:05.217Z,14.10
2018-11-13T01:36:33.896Z,12.77
2018-11-13T01:39:02.005Z,13.17
2018-11-13T01:41:30.152Z,12.87
2018-11-13T01:43:58.264Z,12.53
2018-11-13T01:46:26.403Z,13.00
2018-11-13T01:48:54.845Z,13.93
2018-11-13T01:51:22.629Z,12.50
2018-11-13T01:53:50.740Z,11.47
2018-11-13T01:56:18.773Z,12.40
2018-11-13T01:58:46.935Z,12.07
2018-11-13T02:01:15.039Z,11.27
2018-11-13T02:03:43.237Z,10.90
2018-11-13T02:06:11.371Z,11.87
2018-11-13T02:08:39.417Z,11.60
2018-11-13T02:11:07.511Z,11.67
2018-11-13T02:13:35.561Z,11.30
2018-11-13T02:16:03.687Z,10.73
2018-11-13T02:18:31.853Z,12.50
2018-11-13T02:20:59.978Z,12.77
2018-11-13T02:23:28.049Z,13.40
2018-11-13T02:25:56.179Z,11.30
2018-11-13T02:28:25.213Z,12.23
2018-11-13T02:30:53.339Z,12.53
2018-11-13T02:33:21.436Z,11.37
2018-11-13T02:35:49.526Z,11.97
2018-11-13T02:38:17.656Z,13.93
2018-11-13T02:40:45.893Z,12.47
2018-11-13T02:43:13.933Z,11.43
2018-11-13T02:45:42.110Z,12.00
2018-11-13T02:48:10.508Z,13.97
2018-11-13T02:50:38.609Z,12.80
2018-11-13T02:53:06.707Z,14.53
2018-11-13T02:55:34.812Z,11.90
2018-11-13T02:58:02.897Z,11.73
2018-11-13T03:00:31.047Z,11.83
2018-11-13T03:02:59.099Z,12.90
2018-11-13T03:05:27.174Z,11.50
2018-11-13T03:07:55.376Z,11.97
2018-11-13T03:10:23.443Z,12.93
2018-11-13T03:12:51.516Z,15.13
2018-11-13T03:15:20.785Z,12.53
2018-11-13T03:17:48.844Z,11.47
2018-11-13T03:20:18.215Z,12.43
2018-11-13T03:22:46.655Z,10.53
2018-11-13T03:25:15.940Z,12.17
2018-11-13T03:27:44.009Z,11.17
2018-11-13T03:30:14.342Z,11.90
2018-11-13T03:32:42.719Z,12.33
2018-11-13T03:35:10.794Z,11.73
2018-11-13T03:37:38.804Z,11.60
2018-11-13T03:40:07.244Z,11.83
2018-11-13T03:42:35.329Z,12.37
2018-11-13T03:45:03.445Z,13.67
2018-11-13T03:47:31.522Z,11.97
2018-11-13T03:49:59.565Z,13.70
2018-11-13T03:52:27.661Z,10.80
2018-11-13T03:54:55.743Z,12.53
2018-11-13T03:57:23.865Z,12.10
2018-11-13T03:59:52.503Z,12.43
2018-11-13T04:02:20.581Z,11.97
2018-11-13T04:04:48.788Z,14.00
2018-11-13T04:07:16.801Z,14.50
2018-11-13T04:09:44.878Z,12.20
2018-11-13T04:12:12.918Z,12.07
2018-11-13T04:14:41.128Z,12.77
2018-11-13T04:17:09.218Z,12.33
2018-11-13T04:19:37.379Z,12.73
2018-11-13T04:22:05.724Z,11.27
2018-11-13T04:24:34.125Z,13.23
2018-11-13T04:27:02.549Z,12.00
2018-11-13T04:29:31.097Z,14.63
2018-11-13T04:31:59.201Z,14.50
2018-11-13T04:34:27.237Z,13.30
2018-11-13T04:36:55.317Z,12.30
2018-11-13T04:39:23.396Z,11.80
2018-11-13T04:41:51.463Z,11.87
2018-11-13T04:44:19.661Z,11.43
2018-11-13T04:46:47.737Z,13.00
2018-11-13T04:49:15.919Z,13.27
2018-11-13T04:51:44.019Z,15.53
2018-11-13T04:54:12.146Z,13.37
2018-11-13T04:56:40.233Z,13.77
2018-11-13T04:59:08.300Z,15.00
2018-11-13T05:01:36.389Z,12.77
2018-11-13T05:04:04.839Z,13.00
2018-11-13T05:06:32.924Z,13.07
2018-11-13T05:09:00.972Z,11.80
2018-11-13T05:11:29.263Z,14.73
2018-11-13T05:13:57.451Z,14.77
2018-11-13T05:16:25.574Z,12.73
2018-11-13T05:18:53.734Z,13.20
2018-11-13T05:21:21.764Z,14.33
2018-11-13T05:23:49.922Z,12.43
2018-11-13T05:26:18.022Z,13.63
2018-11-13T05:28:46.861Z,14.93
2018-11-13T05:31:14.937Z,15.50
2018-11-13T05:33:42.998Z,14.73
2018-11-13T05:36:11.052Z,14.07
2018-11-13T05:38:39.200Z,14.63
2018-11-13T05:41:07.273Z,13.80
2018-11-13T05:43:35.347Z,13.17
2018-11-13T05:46:03.402Z,14.87
2018-11-13T05:48:31.504Z,16.20
2018-11-13T05:50:59.565Z,14.00
2018-11-13T05:53:27.653Z,14.33
2018-11-13T05:55:55.881Z,16.10
2018-11-13T05:58:24.009Z,14.97
2018-11-13T06:00:52.041Z,14.13
2018-11-13T06:03:20.058Z,14.57
2018-11-13T06:05:48.196Z,15.50
2018-11-13T06:08:18.160Z,14.93
2018-11-13T06:10:46.345Z,17.37
2018-11-13T06:13:14.372Z,15.83
2018-11-13T06:15:42.388Z,15.47
2018-11-13T06:18:10.486Z,14.53
2018-11-13T06:20:38.520Z,16.43
2018-11-13T06:23:06.642Z,17.50
2018-11-13T06:25:34.703Z,17.30
2018-11-13T06:28:02.726Z,16.33
2018-11-13T06:30:30.746Z,15.40
2018-11-13T06:32:58.814Z,16.33
2018-11-13T06:35:26.849Z,18.13
2018-11-13T06:37:54.892Z,15.70
2018-11-13T06:40:22.914Z,22.33
2018-11-13T06:42:51.007Z,16.90
2018-11-13T06:45:20.421Z,19.17
2018-11-13T06:47:49.150Z,17.37
2018-11-13T06:50:17.407Z,19.20
2018-11-13T06:52:46.162Z,18.57
2018-11-13T06:55:19.885Z,21.33
2018-11-13T06:57:47.905Z,21.60
2018-11-13T07:00:15.946Z,22.10
2018-11-13T07:02:43.982Z,19.23
2018-11-13T07:05:13.550Z,21.40
2018-11-13T07:07:42.030Z,20.93
2018-11-13T07:10:12.046Z,21.43
2018-11-13T07:12:41.272Z,20.17
2018-11-13T07:15:10.286Z,21.17
2018-11-13T07:17:38.378Z,19.17
2018-11-13T07:20:06.821Z,20.33
2018-11-13T07:22:34.894Z,22.80
2018-11-13T07:25:03.056Z,22.93
2018-11-13T07:27:31.230Z,18.67
2018-11-13T07:29:59.380Z,21.87
2018-11-13T07:32:27.409Z,21.20
2018-11-13T07:34:56.153Z,23.70
2018-11-13T07:37:24.200Z,21.63
2018-11-13T07:39:52.262Z,23.67
2018-11-13T07:42:20.306Z,25.03
2018-11-13T07:44:48.430Z,24.57
2018-11-13T07:47:16.558Z,26.00
2018-11-13T07:49:44.608Z,25.83
2018-11-13T07:52:12.705Z,25.60
2018-11-13T07:54:40.757Z,27.13
2018-11-13T07:57:08.937Z,23.00
2018-11-13T07:59:37.389Z,22.70
2018-11-13T08:02:05.502Z,25.33
2018-11-13T08:04:34.429Z,24.47
2018-11-13T08:07:02.853Z,24.23
2018-11-13T08:09:30.902Z,23.17
2018-11-13T08:11:58.925Z,21.10
2018-11-13T08:14:26.974Z,21.43
2018-11-13T08:16:55.058Z,23.83
2018-11-13T08:19:23.648Z,24.03
2018-11-13T08:21:51.828Z,19.03
2018-11-13T08:24:19.888Z,21.10
2018-11-13T08:26:48.094Z,21.60
2018-11-13T08:29:16.159Z,21.80
2018-11-13T08:31:44.166Z,23.40
2018-11-13T08:34:12.398Z,26.47
2018-11-13T08:36:40.409Z,18.50
2018-11-13T08:39:10.300Z,23.87
2018-11-13T08:41:38.349Z,23.37
2018-11-13T08:44:06.819Z,22.90
2018-11-13T08:46:34.792Z,22.23
2018-11-13T08:49:02.850Z,19.93
2018-11-13T08:51:30.956Z,23.17
2018-11-13T08:53:59.024Z,19.57
2018-11-13T08:56:27.177Z,22.87
2018-11-13T08:58:55.327Z,22.03
2018-11-13T09:01:23.303Z,22.73
2018-11-13T09:03:51.368Z,24.07
2018-11-13T09:06:19.662Z,26.77
2018-11-13T09:08:47.768Z,25.10
2018-11-13T09:11:15.962Z,27.40
2018-11-13T09:13:44.036Z,27.07
2018-11-13T09:16:12.722Z,22.13
2018-11-13T09:18:40.868Z,21.97
2018-11-13T09:21:09.770Z,22.50
2018-11-13T09:23:37.923Z,21.83
2018-11-13T09:26:06.039Z,22.63
2018-11-13T09:28:34.195Z,23.60
2018-11-13T09:31:02.578Z,24.40
2018-11-13T09:33:30.485Z,23.97
2018-11-13T09:35:58.650Z,25.13
2018-11-13T09:38:26.734Z,23.73
2018-11-13T09:40:54.824Z,25.80
2018-11-13T09:43:22.848Z,24.13
2018-11-13T09:45:50.965Z,24.83
2018-11-13T09:48:19.013Z,24.00
2018-11-13T09:50:47.143Z,26.80
2018-11-13T09:53:15.082Z,27.30
2018-11-13T09:55:43.157Z,25.03
2018-11-13T09:58:11.178Z,20.90
2018-11-13T10:00:39.441Z,23.77
2018-11-13T10:03:08.040Z,23.40
2018-11-13T10:05:35.538Z,25.37
2018-11-13T10:08:03.514Z,25.23
2018-11-13T10:10:31.564Z,25.10
2018-11-13T10:12:59.635Z,23.23
2018-11-13T10:15:29.121Z,28.00
2018-11-13T10:17:57.299Z,23.97
2018-11-13T10:20:25.232Z,22.13
2018-11-13T10:22:54.481Z,24.40
2018-11-13T10:25:22.663Z,23.73
2018-11-13T10:27:51.621Z,27.87
2018-11-13T10:30:21.051Z,25.37
2018-11-13T10:32:49.713Z,28.00
2018-11-13T10:35:19.075Z,24.83
2018-11-13T10:37:47.207Z,25.63
2018-11-13T10:40:17.274Z,20.93
2018-11-13T10:42:45.368Z,25.50
2018-11-13T10:45:15.017Z,27.03
2018-11-13T10:47:43.256Z,24.70
2018-11-13T10:50:14.499Z,28.13
2018-11-13T10:52:42.470Z,29.43
2018-11-13T10:55:11.003Z,29.17
2018-11-13T10:57:39.945Z,24.67
2018-11-13T11:00:13.183Z,27.80
2018-11-13T11:02:46.851Z,28.10
2018-11-13T11:05:14.847Z,28.00
2018-11-13T11:07:43.218Z,25.87
2018-11-13T11:10:11.263Z,21.83
2018-11-13T11:12:39.306Z,26.07
2018-11-13T11:15:07.738Z,26.03
2018-11-13T11:17:35.765Z,32.30
2018-11-13T11:20:04.277Z,26.37
2018-11-13T11:22:32.346Z,24.30
2018-11-13T11:25:00.421Z,21.90
2018-11-13T11:27:28.465Z,21.23
2018-11-13T11:29:56.588Z,22.57
2018-11-13T11:32:24.639Z,23.07
2018-11-13T11:34:52.680Z,24.03
2018-11-13T11:37:20.714Z,22.17
2018-11-13T11:39:48.794Z,24.97
2018-11-13T11:42:16.828Z,23.00
2018-11-13T11:44:44.985Z,25.33
2018-11-13T11:47:13.026Z,25.33
2018-11-13T11:49:41.102Z,23.97
2018-11-13T11:52:09.145Z,25.30
2018-11-13T11:54:37.188Z,25.23
2018-11-13T11:57:05.341Z,25.50
2018-11-13T11:59:33.365Z,24.77
2018-11-13T12:02:01.496Z,29.40
2018-11-13T12:04:29.552Z,29.30
2018-11-13T12:06:57.570Z,27.43
2018-11-13T12:09:25.653Z,31.07
2018-11-13T12:11:53.683Z,31.37
2018-11-13T12:14:21.745Z,24.23
2018-11-13T12:16:49.777Z,25.00
2018-11-13T12:19:17.858Z,23.93
2018-11-13T12:21:45.970Z,23.20
2018-11-13T12:24:14.138Z,23.13
2018-11-13T12:26:42.173Z,20.43
2018-11-13T12:29:10.225Z,21.63
2018-11-13T12:31:38.275Z,21.30
2018-11-13T12:34:06.325Z,25.43
2018-11-13T12:36:34.532Z,25.73
2018-11-13T12:39:02.607Z,26.10
2018-11-13T12:41:30.705Z,28.77
2018-11-13T12:43:58.877Z,25.20
2018-11-13T12:46:26.962Z,23.87
2018-11-13T12:48:55.062Z,25.30
2018-11-13T12:51:28.658Z,22.13
2018-11-13T12:53:58.381Z,22.20
2018-11-13T12:56:25.210Z,24.63
2018-11-13T12:58:53.523Z,20.03
2018-11-13T13:01:21.949Z,21.67
2018-11-13T13:03:50.246Z,21.30
2018-11-13T13:06:19.114Z,19.83
2018-11-13T13:08:47.529Z,19.67
2018-11-13T13:11:15.915Z,20.77
2018-11-13T13:13:44.846Z,20.37
2018-11-13T13:16:14.765Z,22.10
2018-11-13T13:18:43.084Z,18.43
2018-11-13T13:21:11.696Z,19.80
2018-11-13T13:23:40.070Z,17.97
2018-11-13T13:26:08.857Z,14.73
2018-11-13T13:28:37.137Z,18.53
2018-11-13T13:31:05.496Z,18.30
2018-11-13T13:33:33.794Z,17.80
2018-11-13T13:36:03.108Z,16.63
2018-11-13T13:38:33.132Z,16.67
2018-11-13T13:41:02.420Z,15.43
2018-11-13T13:43:31.699Z,18.60
2018-11-13T13:46:00.135Z,16.83
2018-11-13T13:48:29.273Z,16.50
2018-11-13T13:50:57.302Z,19.37
2018-11-13T13:53:27.076Z,16.10
2018-11-13T13:55:55.162Z,16.93
2018-11-13T13:58:24.115Z,16.30
2018-11-13T14:00:52.438Z,15.00
2018-11-13T14:03:20.541Z,15.97
2018-11-13T14:05:48.874Z,17.00
2018-11-13T14:08:17.642Z,15.73
2018-11-13T14:10:45.800Z,14.67
2018-11-13T14:13:14.385Z,14.40
2018-11-13T14:15:42.434Z,13.67
2018-11-13T14:18:10.834Z,15.90
2018-11-13T14:20:39.122Z,12.17
2018-11-13T14:23:07.410Z,12.67
2018-11-13T14:25:35.532Z,12.33
2018-11-13T14:28:03.683Z,12.83
2018-11-13T14:30:32.932Z,13.27
2018-11-13T14:33:03.509Z,11.57
2018-11-13T14:35:31.572Z,13.00
2018-11-13T14:38:00.020Z,12.53
2018-11-13T14:40:31.781Z,10.00
2018-11-13T14:43:00.258Z,10.63
2018-11-13T14:45:28.752Z,13.27
2018-11-13T14:47:56.999Z,15.30
2018-11-13T14:50:26.551Z,12.67
2018-11-13T14:52:54.906Z,11.37
2018-11-13T15:02:24.685Z,14.13
2018-11-13T15:04:52.722Z,11.40
2018-11-13T15:07:20.798Z,13.80
2018-11-13T15:09:48.885Z,11.77
2018-11-13T15:12:17.041Z,16.83
2018-11-13T15:14:45.070Z,12.03
2018-11-13T15:17:13.156Z,11.80
2018-11-13T15:19:41.189Z,11.03
2018-11-13T15:22:09.250Z,10.67
2018-11-13T15:24:37.693Z,14.63
2018-11-13T15:27:05.662Z,11.17
2018-11-13T15:29:33.706Z,11.80
2018-11-13T15:32:01.717Z,13.07
2018-11-13T15:34:29.743Z,12.07
2018-11-13T15:36:58.520Z,19.33
2018-11-13T15:39:26.688Z,14.17
2018-11-13T15:41:54.728Z,13.93
2018-11-13T15:44:22.779Z,13.43
2018-11-13T15:46:50.837Z,12.33
2018-11-13T15:49:18.926Z,12.33
2018-11-13T15:51:47.269Z,11.13
2018-11-13T15:54:15.259Z,12.27
2018-11-13T15:56:43.302Z,10.20
2018-11-13T15:59:11.487Z,10.13
2018-11-13T16:01:39.443Z,6.30
2018-11-13T16:04:07.590Z,7.17
2018-11-13T16:06:35.869Z,9.20
2018-11-13T16:09:05.893Z,7.10
2018-11-13T16:11:33.993Z,5.87
2018-11-13T16:14:02.017Z,5.43
2018-11-13T16:16:30.189Z,7.90
2018-11-13T16:18:58.267Z,6.30
2018-11-13T16:21:26.324Z,6.73
2018-11-13T16:23:54.432Z,5.17
2018-11-13T16:26:22.521Z,7.60
2018-11-13T16:28:50.605Z,6.27
2018-11-13T16:31:18.700Z,7.07
2018-11-13T16:33:47.497Z,5.93
2018-11-13T16:36:15.701Z,6.10
2018-11-13T16:38:43.826Z,6.33
2018-11-13T16:41:11.802Z,6.10
2018-11-13T16:43:40.212Z,4.10
2018-11-13T16:46:08.328Z,4.83
2018-11-13T16:48:36.402Z,6.37
2018-11-13T16:51:04.891Z,5.33
2018-11-13T16:53:37.354Z,7.13
2018-11-13T16:56:05.513Z,4.50
2018-11-13T16:58:33.733Z,6.43
2018-11-13T17:01:01.840Z,6.13
2018-11-13T17:03:29.912Z,6.57
2018-11-13T17:05:57.984Z,5.03
2018-11-13T17:08:26.056Z,6.40
2018-11-13T17:10:54.106Z,7.73
2018-11-13T17:13:22.193Z,4.13
2018-11-13T17:15:50.229Z,9.17
2018-11-13T17:18:18.361Z,4.33
2018-11-13T17:20:46.385Z,5.87
2018-11-13T17:23:14.441Z,5.30
2018-11-13T17:25:42.523Z,5.73
2018-11-13T17:28:10.651Z,4.33
2018-11-13T17:30:39.162Z,4.30
2018-11-13T17:33:07.958Z,3.77
2018-11-13T17:35:36.030Z,6.20
2018-11-13T17:38:04.260Z,3.23
2018-11-13T17:40:33.486Z,6.37
2018-11-13T17:43:02.974Z,2.63
2018-11-13T17:45:32.353Z,5.23
2018-11-13T17:48:00.491Z,3.43
2018-11-13T17:50:31.777Z,2.73
2018-11-13T17:52:59.801Z,5.13
2018-11-13T17:55:28.044Z,4.87
2018-11-13T17:57:57.630Z,2.63
2018-11-13T18:00:27.362Z,3.60
2018-11-13T18:02:55.447Z,4.13
2018-11-13T18:05:24.327Z,3.10
2018-11-13T18:08:00.400Z,3.83
2018-11-13T18:10:29.247Z,2.70
2018-11-13T18:12:57.413Z,4.20
2018-11-13T18:15:26.714Z,4.03
2018-11-13T18:17:54.781Z,3.60
2018-11-13T18:20:24.275Z,4.83
2018-11-13T18:22:52.352Z,5.20
2018-11-13T18:25:20.393Z,2.63
2018-11-13T18:27:49.995Z,5.13
2018-11-13T18:30:19.626Z,4.13
2018-11-13T18:32:48.069Z,7.57
2018-11-13T18:35:19.311Z,4.00
2018-11-13T18:37:47.986Z,4.17
2018-11-13T18:40:17.293Z,2.40
2018-11-13T18:42:46.380Z,2.30
2018-11-13T18:45:16.474Z,2.90
2018-11-13T18:47:44.499Z,3.10
2018-11-13T18:50:15.935Z,3.90
2018-11-13T18:52:44.066Z,4.20
2018-11-13T18:55:12.565Z,3.60
2018-11-13T18:57:41.310Z,3.17
2018-11-13T19:00:11.061Z,3.23
2018-11-13T19:02:40.223Z,2.90
2018-11-13T19:05:08.662Z,4.00
2018-11-13T19:07:36.711Z,2.90
2018-11-13T19:10:07.656Z,4.43
2018-11-13T19:12:35.777Z,4.57
2018-11-13T19:15:03.779Z,6.20
2018-11-13T19:17:31.855Z,4.47
2018-11-13T19:19:59.972Z,5.20
2018-11-13T19:22:28.013Z,4.60
2018-11-13T19:24:56.092Z,4.50
2018-11-13T19:27:24.167Z,6.10
2018-11-13T19:29:52.255Z,4.20
2018-11-13T19:32:20.306Z,5.70
2018-11-13T19:34:48.436Z,5.33
2018-11-13T19:37:16.619Z,5.53
2018-11-13T19:39:44.678Z,6.13
2018-11-13T19:42:12.739Z,6.30
2018-11-13T19:44:43.617Z,5.80
2018-11-13T19:47:11.855Z,4.77
2018-11-13T19:49:39.991Z,7.43
2018-11-13T19:52:08.050Z,5.47
2018-11-13T19:54:36.138Z,6.77
2018-11-13T19:57:04.334Z,7.93
2018-11-13T19:59:32.446Z,7.33
2018-11-13T20:02:00.465Z,5.97
2018-11-13T20:04:28.621Z,5.10
2018-11-13T20:06:56.725Z,7.37
2018-11-13T20:09:24.953Z,5.97
2018-11-13T20:11:53.184Z,10.10
2018-11-13T20:14:21.429Z,7.20
2018-11-13T20:16:49.898Z,7.87
2018-11-13T20:19:17.964Z,6.13
2018-11-13T20:21:46.155Z,8.90
2018-11-13T20:24:39.551Z,9.93
2018-11-13T20:27:07.945Z,6.67
2018-11-13T20:29:36.103Z,11.40
2018-11-13T20:32:04.540Z,7.47
2018-11-13T20:34:32.775Z,6.97
2018-11-13T20:37:01.070Z,9.80
2018-11-13T20:39:29.723Z,8.37
2018-11-13T20:41:57.777Z,10.77
2018-11-13T20:44:25.841Z,8.67
2018-11-13T20:46:53.888Z,8.83
2018-11-13T20:49:21.939Z,7.10
2018-11-13T20:51:50.059Z,8.03
2018-11-13T20:54:18.394Z,8.70
2018-11-13T20:56:46.612Z,6.57
2018-11-13T20:59:14.750Z,9.97
2018-11-13T21:01:43.096Z,8.07
2018-11-13T21:04:11.220Z,8.73
2018-11-13T21:06:39.535Z,8.83
2018-11-13T21:09:07.748Z,7.60
2018-11-13T21:11:36.534Z,7.47
2018-11-13T21:14:04.697Z,6.93
2018-11-13T21:16:32.900Z,9.27
2018-11-13T21:19:00.873Z,9.03
2018-11-13T21:21:29.065Z,9.30
2018-11-13T21:23:57.421Z,9.13
2018-11-13T21:26:25.588Z,10.77
2018-11-13T21:28:53.849Z,9.47
2018-11-13T21:31:22.069Z,11.60
2018-11-13T21:33:50.120Z,9.80
2018-11-13T21:36:18.227Z,10.43
2018-11-13T21:38:46.498Z,8.23
2018-11-13T21:41:14.611Z,9.03
2018-11-13T21:43:42.728Z,11.70
2018-11-13T21:46:10.770Z,9.37
2018-11-13T21:48:38.894Z,12.53
2018-11-13T21:51:07.183Z,9.87
2018-11-13T21:53:35.260Z,13.00
2018-11-13T21:56:03.421Z,9.97
2018-11-13T21:58:31.458Z,9.37
2018-11-13T22:00:59.671Z,11.20
2018-11-13T22:03:27.753Z,16.77
2018-11-13T22:05:56.251Z,13.23
2018-11-13T22:08:24.413Z,15.30
2018-11-13T22:10:52.507Z,13.67
2018-11-13T22:13:20.719Z,13.23
2018-11-13T22:15:48.741Z,15.87
2018-11-13T22:18:16.811Z,13.00
2018-11-13T22:20:44.966Z,10.77
2018-11-13T22:23:13.105Z,9.60
2018-11-13T22:25:41.273Z,12.40
2018-11-13T22:28:09.717Z,14.47
2018-11-13T22:30:37.524Z,10.77
2018-11-13T22:33:05.594Z,13.17
2018-11-13T22:35:33.675Z,10.80
2018-11-13T22:38:02.701Z,8.93
2018-11-13T22:40:30.829Z,11.33
2018-11-13T22:42:59.791Z,9.77
2018-11-13T22:45:28.796Z,11.87
2018-11-13T22:47:57.238Z,9.77
2018-11-13T22:50:28.193Z,9.30
2018-11-13T22:52:56.592Z,9.50
2018-11-13T22:55:24.729Z,10.83
2018-11-13T22:57:54.164Z,8.87
2018-11-13T23:00:35.920Z,10.57
2018-11-13T23:03:04.731Z,9.53
2018-11-13T23:05:32.815Z,9.90
2018-11-13T23:08:00.895Z,9.43
2018-11-13T23:10:28.932Z,10.00
2018-11-13T23:12:57.012Z,7.90
2018-11-13T23:15:25.119Z,11.47
2018-11-13T23:17:53.293Z,14.40
2018-11-13T23:20:21.639Z,10.70
2018-11-13T23:22:49.700Z,10.17
2018-11-13T23:25:18.948Z,11.30
2018-11-13T23:27:47.967Z,9.93
2018-11-13T23:30:17.783Z,11.47
2018-11-13T23:32:46.012Z,8.83
2018-11-13T23:35:14.448Z,10.03
2018-11-13T23:37:43.476Z,10.10
2018-11-13T23:40:13.272Z,8.70
2018-11-13T23:42:41.565Z,12.83
2018-11-13T23:45:10.337Z,9.43
2018-11-13T23:47:38.378Z,10.13
2018-11-13T23:50:06.789Z,7.77
2018-11-13T23:52:34.940Z,8.13
2018-11-13T23:55:03.002Z,11.13
2018-11-13T23:57:31.101Z,7.33
2018-11-13T23:59:59.165Z,10.10
